Time;durP1;ratioP1;P1;durP2;ratioP2;P2;SDS_P1;SDS_P2;PMS_P1;PMS_P2;Temp;Humidity;BMP_temperature;BMP_pressure;BME280_temperature;BME280_humidity;BME280_pressure;Samples;Min_cycle;Max_cycle;Signal;HPM_P1;HPM_P2
2022/05/10 00:00:58;;;;;;;;;23.75;22.50;;;;;18.15;56.67;101487.63;5027786;28;45080;-81
2022/05/10 00:03:31;;;;;;;;;25.50;24.75;;;;;17.79;56.48;101430.34;5028260;28;46313;-82
2022/05/10 00:05:57;;;;;;;;;23.50;23.00;;;;;18.24;57.25;101511.72;5035013;28;45664;-80
2022/05/10 00:08:22;;;;;;;;;20.50;19.25;;;;;18.16;56.80;101492.09;5035927;28;45485;-82
2022/05/10 00:10:48;;;;;;;;;24.75;23.75;;;;;18.03;56.98;101477.72;5029294;28;45245;-81
2022/05/10 00:13:14;;;;;;;;;26.00;25.25;;;;;18.15;56.79;101494.72;5031453;28;46036;-80
2022/05/10 00:15:41;;;;;;;;;23.50;22.50;;;;;18.13;56.54;101491.13;5031139;28;45384;-84
2022/05/10 00:18:11;;;;;;;;;24.00;23.50;;;;;18.33;57.08;101524.28;5032703;28;45088;-80
2022/05/10 00:20:37;;;;;;;;;24.00;22.75;;;;;18.31;57.45;101512.72;5050838;28;45323;-80
2022/05/10 00:23:03;;;;;;;;;27.25;24.25;;;;;17.99;57.17;101459.03;5051168;28;45828;-81
2022/05/10 00:25:30;;;;;;;;;23.50;23.50;;;;;18.01;56.80;101467.91;5051445;28;45042;-82
2022/05/10 00:27:56;;;;;;;;;25.25;24.25;;;;;18.19;56.94;101507.22;5050752;28;45230;-80
2022/05/10 00:30:22;;;;;;;;;25.50;24.25;;;;;18.06;57.50;101484.84;5030572;28;45191;-80
2022/05/10 00:32:48;;;;;;;;;25.25;23.50;;;;;17.92;57.29;101463.31;5030265;28;46137;-80
2022/05/10 00:35:17;;;;;;;;;24.75;24.50;;;;;18.17;57.21;101508.94;5031065;28;45091;-80
2022/05/10 00:37:45;;;;;;;;;24.75;24.25;;;;;18.13;57.57;101508.00;5031062;28;45008;-80
2022/05/10 00:40:12;;;;;;;;;19.75;19.50;;;;;18.01;57.58;101484.75;5030831;28;45150;-80
2022/05/10 00:43:36;;;;;;;;;24.50;24.00;;;;;18.09;57.81;101505.28;5037542;28;46175;-80
2022/05/10 00:46:11;;;;;;;;;24.25;23.25;;;;;18.02;57.96;101501.59;4974492;28;45627;-80
2022/05/10 00:48:52;;;;;;;;;25.25;23.75;;;;;17.78;58.26;101471.09;4975772;28;45057;-79
2022/05/10 00:51:48;;;;;;;;;24.00;22.75;;;;;17.92;58.05;101505.88;5027722;28;45174;-81
2022/05/10 00:54:33;;;;;;;;;23.75;23.00;;;;;17.60;58.78;101443.28;5031008;28;45323;-80
2022/05/10 00:57:20;;;;;;;;;23.75;23.75;;;;;17.85;58.65;101493.38;5030846;28;45565;-80
2022/05/10 01:00:12;;;;;;;;;23.75;23.50;;;;;17.62;58.26;101453.03;5031502;28;45041;-80
2022/05/10 01:02:46;;;;;;;;;24.75;23.75;;;;;17.78;58.49;101488.78;5028505;28;45237;-80
2022/05/10 01:05:23;;;;;;;;;23.25;23.25;;;;;17.75;59.00;101480.78;5030698;28;46018;-80
2022/05/10 01:07:58;;;;;;;;;23.75;23.75;;;;;17.72;59.03;101481.56;5032622;28;45760;-80
2022/05/10 01:10:43;;;;;;;;;23.00;23.00;;;;;17.68;58.92;101469.09;5051138;28;45135;-80
2022/05/10 01:13:15;;;;;;;;;25.00;24.25;;;;;17.67;59.14;101477.94;5049614;28;45002;-80
2022/05/10 01:15:48;;;;;;;;;24.75;24.25;;;;;17.60;58.81;101469.84;5049838;28;45868;-81
2022/05/10 01:18:22;;;;;;;;;24.00;23.50;;;;;17.42;58.99;101438.53;5030272;28;45477;-81
2022/05/10 01:20:51;;;;;;;;;27.50;26.00;;;;;17.23;58.89;101413.38;5027813;28;45321;-80
2022/05/10 01:23:45;;;;;;;;;25.75;24.50;;;;;17.58;59.22;101467.16;5030435;28;45150;-80
2022/05/10 01:26:42;;;;;;;;;22.25;20.50;;;;;17.56;59.03;101460.91;5030461;28;45702;-79
2022/05/10 01:29:14;;;;;;;;;21.50;21.50;;;;;17.52;59.50;101459.06;5008700;28;45838;-80
2022/05/10 01:34:43;;;;;;;;;25.00;24.00;;;;;17.43;59.29;101457.13;5050362;28;44985;-79
2022/05/10 01:37:14;;;;;;;;;23.00;22.25;;;;;17.11;59.68;101405.19;5048461;28;46203;-79
2022/05/10 01:39:46;;;;;;;;;22.00;21.00;;;;;17.17;59.27;101426.56;5048640;28;45177;-80
2022/05/10 01:42:25;;;;;;;;;22.75;22.25;;;;;17.10;59.50;101414.94;5029637;28;45199;-79
2022/05/10 01:45:00;;;;;;;;;23.00;22.00;;;;;17.32;59.58;101453.41;5029816;28;45447;-80
2022/05/10 01:47:29;;;;;;;;;24.75;23.75;;;;;17.27;59.78;101442.69;5045195;28;45978;-79
2022/05/10 01:50:13;;;;;;;;;23.50;23.50;;;;;17.24;59.88;101445.31;5043610;28;45999;-80
2022/05/10 01:52:50;;;;;;;;;23.75;23.75;;;;;17.08;59.61;101419.31;5036311;28;45198;-80
2022/05/10 01:55:18;;;;;;;;;25.50;25.25;;;;;17.20;60.07;101451.44;5050115;28;45081;-80
2022/05/10 01:57:44;;;;;;;;;24.00;22.50;;;;;16.89;60.45;101390.59;5049038;28;45323;-80
2022/05/10 02:00:15;;;;;;;;;25.25;25.25;;;;;16.80;60.03;101380.72;5048837;28;45340;-80
2022/05/10 02:02:51;;;;;;;;;23.75;23.50;;;;;16.76;60.10;101373.56;5048316;28;44947;-84
2022/05/10 02:05:25;;;;;;;;;26.25;23.75;;;;;16.89;60.42;101404.78;5035693;28;45181;-79
2022/05/10 02:07:56;;;;;;;;;24.50;23.75;;;;;16.91;60.41;101416.34;5049130;28;45977;-80
2022/05/10 02:10:29;;;;;;;;;23.50;22.75;;;;;16.79;60.84;101394.84;5049616;28;45339;-81
2022/05/10 02:13:04;;;;;;;;;23.00;23.00;;;;;16.99;60.52;101427.09;5048880;28;45280;-81
2022/05/10 02:16:09;;;;;;;;;28.25;27.00;;;;;17.01;60.84;101428.03;5048270;28;45180;-81
2022/05/10 02:18:50;;;;;;;;;26.50;25.00;;;;;16.76;61.26;101392.16;5033992;28;45372;-80
2022/05/10 02:21:21;;;;;;;;;24.25;24.25;;;;;16.78;61.08;101395.72;5049442;28;45503;-80
2022/05/10 02:24:04;;;;;;;;;24.00;24.00;;;;;16.99;61.21;101428.00;5049462;28;44985;-80
2022/05/10 02:26:37;;;;;;;;;25.50;25.25;;;;;16.83;61.23;101404.66;5032316;28;45180;-82
2022/05/10 02:29:31;;;;;;;;;25.75;25.50;;;;;16.83;61.04;101402.00;5038422;28;46306;-80
2022/05/10 02:34:50;;;;;;;;;25.00;25.00;;;;;16.91;61.09;101423.41;5049477;28;45275;-82
2022/05/10 02:37:15;;;;;;;;;29.50;28.00;;;;;16.68;61.22;101377.78;5044737;28;45000;-82
2022/05/10 02:39:41;;;;;;;;;28.50;26.50;;;;;16.77;61.25;101402.78;5037467;28;45334;-79
2022/05/10 02:42:10;;;;;;;;;25.75;24.00;;;;;16.74;61.36;101388.53;5028821;28;45586;-79
2022/05/10 02:44:39;;;;;;;;;28.00;25.75;;;;;16.80;61.50;101396.66;5029094;28;45412;-81
2022/05/10 02:47:06;;;;;;;;;25.50;24.50;;;;;16.84;61.57;101405.56;5043444;28;45240;-80
2022/05/10 02:49:34;;;;;;;;;27.25;26.75;;;;;16.83;61.43;101398.47;5034301;28;46798;-80
2022/05/10 02:52:00;;;;;;;;;24.00;24.00;;;;;16.83;61.55;101394.03;5028940;28;45708;-79
2022/05/10 02:54:25;;;;;;;;;23.75;23.50;;;;;16.93;61.60;101411.94;5029242;28;45271;-80
2022/05/10 02:56:51;;;;;;;;;28.00;26.50;;;;;16.81;61.40;101378.97;5028322;28;44989;-80
2022/05/10 02:59:23;;;;;;;;;26.25;26.00;;;;;17.05;61.43;101415.72;5039902;28;45165;-79
2022/05/10 03:02:12;;;;;;;;;27.25;26.25;;;;;17.08;61.22;101415.75;5048550;28;45400;-79
2022/05/10 03:04:41;;;;;;;;;27.00;26.00;;;;;17.12;61.16;101407.88;5048405;28;45588;-80
2022/05/10 03:07:08;;;;;;;;;28.00;26.50;;;;;16.94;61.52;101371.22;5036832;28;45202;-79
2022/05/10 03:09:34;;;;;;;;;24.75;24.00;;;;;17.16;61.18;101408.84;5040999;28;45643;-80
2022/05/10 03:12:04;;;;;;;;;27.50;26.25;;;;;17.02;60.97;101377.59;5048440;28;46572;-80
2022/05/10 03:14:29;;;;;;;;;29.25;27.00;;;;;17.06;61.51;101375.00;5049550;28;45105;-80
2022/05/10 03:16:54;;;;;;;;;27.50;25.75;;;;;17.10;61.22;101383.06;5038824;28;45107;-80
2022/05/10 03:19:20;;;;;;;;;26.00;25.33;;;;;16.97;61.24;101352.72;5037981;28;45335;-79
2022/05/10 03:21:45;;;;;;;;;25.75;25.25;;;;;17.05;60.31;101354.63;5048225;28;45068;-79
2022/05/10 03:24:10;;;;;;;;;23.25;23.25;;;;;17.19;60.23;101379.66;5048194;28;45028;-80
2022/05/10 03:26:36;;;;;;;;;29.50;28.00;;;;;17.25;60.56;101378.00;5048153;28;44982;-79
2022/05/10 03:29:03;;;;;;;;;25.50;25.25;;;;;17.12;60.78;101354.75;5046519;28;45908;-80
2022/05/10 03:31:29;;;;;;;;;25.00;24.00;;;;;17.05;60.98;101344.91;5048569;28;46028;-80
2022/05/10 03:36:40;;;;;;;;;28.00;26.00;;;;;17.24;61.36;101378.88;5028589;28;45099;-78
2022/05/10 03:39:06;;;;;;;;;29.00;24.75;;;;;17.21;61.03;101383.25;5040581;28;45434;-79
2022/05/10 03:41:32;;;;;;;;;28.75;27.00;;;;;17.18;61.63;101381.41;5047908;28;45509;-80
2022/05/10 03:43:57;;;;;;;;;26.00;25.50;;;;;16.67;61.53;101291.97;5048022;28;45061;-80
2022/05/10 03:46:23;;;;;;;;;27.00;26.50;;;;;16.88;61.25;101338.38;5036626;28;45134;-80
2022/05/10 03:48:50;;;;;;;;;29.00;28.00;;;;;16.82;61.40;101333.84;5036421;28;45317;-80
2022/05/10 03:51:15;;;;;;;;;26.00;25.25;;;;;16.70;61.52;101313.25;5048312;28;45151;-79
2022/05/10 03:53:41;;;;;;;;;23.25;23.25;;;;;16.83;61.64;101338.28;5046531;28;44941;-80
2022/05/10 03:56:06;;;;;;;;;26.50;26.00;;;;;16.87;61.48;101337.47;5047331;28;45292;-80
2022/05/10 03:58:31;;;;;;;;;27.00;26.50;;;;;16.93;61.80;101345.56;5040855;28;45847;-80
2022/05/10 04:00:57;;;;;;;;;27.00;25.50;;;;;16.76;61.70;101324.03;5026217;28;45170;-80
2022/05/10 04:03:22;;;;;;;;;27.00;25.00;;;;;16.96;62.09;101358.91;5044124;28;44945;-80
2022/05/10 04:05:47;;;;;;;;;25.00;25.00;;;;;16.91;61.94;101359.69;5048099;28;45073;-81
2022/05/10 04:08:13;;;;;;;;;26.75;26.50;;;;;16.91;61.87;101360.56;5043980;28;45110;-80
2022/05/10 04:10:38;;;;;;;;;25.50;24.00;;;;;16.95;61.59;101358.88;5030257;28;45092;-81
2022/05/10 04:13:05;;;;;;;;;26.00;25.67;;;;;16.62;61.80;101306.00;5048232;28;45002;-80
2022/05/10 04:15:30;;;;;;;;;27.25;26.00;;;;;16.71;61.65;101308.84;5047932;28;45276;-83
2022/05/10 04:17:56;;;;;;;;;23.00;23.00;;;;;16.88;62.07;101339.25;5045071;28;45326;-81
2022/05/10 04:20:21;;;;;;;;;26.50;25.50;;;;;16.84;61.83;101331.22;5027879;28;45210;-81
2022/05/10 04:22:46;;;;;;;;;26.75;25.75;;;;;16.81;62.01;101329.41;5029749;28;45136;-82
2022/05/10 04:25:12;;;;;;;;;27.00;26.33;;;;;16.92;62.21;101342.88;5048005;28;45039;-81
2022/05/10 04:27:38;;;;;;;;;29.00;28.00;;;;;16.98;62.45;101354.50;5049596;28;45354;-83
2022/05/10 04:30:04;;;;;;;;;25.25;24.00;;;;;17.06;62.44;101364.38;5046511;28;45166;-83
2022/05/10 04:32:29;;;;;;;;;26.25;25.25;;;;;16.63;62.48;101289.22;5046847;28;45553;-81
2022/05/10 04:34:55;;;;;;;;;28.50;27.00;;;;;16.84;62.42;101328.56;5045850;28;45222;-82
2022/05/10 04:37:20;;;;;;;;;24.00;24.00;;;;;16.77;62.38;101324.91;5047556;28;45171;-81
2022/05/10 04:42:29;;;;;;;;;26.00;25.50;;;;;16.88;62.51;101333.97;5047736;28;45105;-83
2022/05/10 04:44:55;;;;;;;;;22.50;22.50;;;;;16.62;62.75;101293.63;5045672;28;45052;-81
2022/05/10 04:47:20;;;;;;;;;27.50;26.50;;;;;16.82;62.68;101327.66;5046201;28;48129;-81
2022/05/10 04:49:45;;;;;;;;;25.75;24.50;;;;;16.97;62.94;101350.06;5039789;28;45154;-82
2022/05/10 04:52:11;;;;;;;;;29.00;26.75;;;;;16.90;62.62;101326.94;5034907;28;45225;-81
2022/05/10 04:54:37;;;;;;;;;27.00;25.50;;;;;17.15;62.74;101352.16;5039378;28;45387;-81
2022/05/10 04:57:04;;;;;;;;;25.25;25.00;;;;;17.10;62.94;101347.63;5029018;28;45697;-82
2022/05/10 04:59:32;;;;;;;;;25.00;23.00;;;;;17.05;62.42;101336.03;5031191;28;45235;-82
2022/05/10 05:01:57;;;;;;;;;24.00;22.00;;;;;17.16;62.68;101345.97;5029920;28;45430;-80
2022/05/10 05:04:22;;;;;;;;;23.33;22.67;;;;;17.27;63.08;101362.09;5032139;28;45358;-82
2022/05/10 05:06:50;;;;;;;;;29.67;27.00;;;;;17.10;62.97;101327.28;5031136;28;45770;-82
2022/05/10 05:09:16;;;;;;;;;22.25;22.25;;;;;17.27;62.98;101351.47;5046446;28;45856;-83
2022/05/10 05:11:41;;;;;;;;;31.00;30.00;;;;;17.13;62.96;101323.75;5031474;28;45646;-81
2022/05/10 05:14:07;;;;;;;;;28.75;27.25;;;;;17.24;63.16;101341.69;5030871;28;45040;-84
2022/05/10 05:16:32;;;;;;;;;32.50;30.00;;;;;17.17;63.28;101329.16;5030217;28;45379;-83
2022/05/10 05:18:58;;;;;;;;;27.50;27.50;;;;;17.29;62.89;101339.13;5030852;28;45121;-83
2022/05/10 05:21:23;;;;;;;;;26.50;25.50;;;;;17.24;62.99;101315.13;5029339;28;45311;-80
2022/05/10 05:23:48;;;;;;;;;33.25;28.75;;;;;17.62;63.04;101383.03;5031368;28;45208;-84
2022/05/10 05:26:14;;;;;;;;;26.75;25.75;;;;;17.64;63.08;101386.63;5049199;28;45206;-83
2022/05/10 05:28:39;;;;;;;;;26.75;26.00;;;;;17.68;62.95;101376.03;5049849;28;45064;-83
2022/05/10 05:31:06;;;;;;;;;27.00;26.00;;;;;17.43;62.90;101332.22;5062042;28;46308;-83
2022/05/10 05:33:32;;;;;;;;;26.50;24.75;;;;;17.51;62.32;101335.91;5048253;28;45072;-86
2022/05/10 05:35:57;;;;;;;;;30.75;30.00;;;;;17.51;62.96;101330.59;5045135;28;46928;-84
2022/05/10 05:38:24;;;;;;;;;28.25;27.75;;;;;17.56;62.66;101341.31;5048768;28;45009;-83
2022/05/10 05:40:50;;;;;;;;;26.50;25.50;;;;;17.52;62.78;101327.06;5050128;28;45186;-85
2022/05/10 05:43:21;;;;;;;;;30.25;29.00;;;;;17.82;62.85;101370.09;5047212;28;45143;-83
2022/05/10 05:45:47;;;;;;;;;28.75;28.00;;;;;17.79;62.91;101358.53;5041382;28;45762;-83
2022/05/10 05:48:13;;;;;;;;;29.75;29.50;;;;;17.97;62.73;101387.16;5049867;28;45546;-83
2022/05/10 05:50:38;;;;;;;;;27.50;26.00;;;;;17.79;62.71;101339.94;5049775;28;45214;-84
2022/05/10 05:53:04;;;;;;;;;24.75;23.50;;;;;17.76;62.66;101323.03;5049869;28;45101;-84
2022/05/10 05:55:29;;;;;;;;;27.75;27.50;;;;;18.00;62.92;101363.28;5031958;28;46516;-83
2022/05/10 05:57:55;;;;;;;;;26.00;26.00;;;;;18.13;62.76;101363.44;5049536;28;45132;-83
2022/05/10 06:00:25;;;;;;;;;32.25;30.25;;;;;18.25;62.76;101377.81;5048686;28;45788;-83
2022/05/10 06:02:51;;;;;;;;;27.75;26.75;;;;;18.25;62.64;101374.25;5039872;28;45416;-82
2022/05/10 06:05:18;;;;;;;;;34.50;32.00;;;;;18.29;63.11;101369.00;5046128;28;45567;-83
2022/05/10 06:07:44;;;;;;;;;28.00;27.50;;;;;18.33;62.66;101355.75;5048899;28;45675;-83
2022/05/10 06:10:10;;;;;;;;;25.75;24.75;;;;;18.58;62.78;101387.09;5046023;28;45265;-82
2022/05/10 06:12:37;;;;;;;;;27.50;26.50;;;;;18.67;62.30;101383.63;5057135;28;45079;-84
2022/05/10 06:15:10;;;;;;;;;28.50;27.75;;;;;18.74;62.50;101380.22;5052802;28;47525;-83
2022/05/10 06:17:38;;;;;;;;;28.25;27.25;;;;;18.76;60.17;101373.13;5048502;28;45231;-82
2022/05/10 06:20:06;;;;;;;;;27.00;26.00;;;;;18.74;59.05;101365.13;5049731;28;45420;-83
2022/05/10 06:22:33;;;;;;;;;27.50;26.00;;;;;18.65;58.63;101322.38;5049057;28;45237;-84
2022/05/10 06:24:58;;;;;;;;;27.75;25.50;;;;;18.81;58.56;101342.09;5046793;28;45716;-82
2022/05/10 06:27:23;;;;;;;;;25.50;24.75;;;;;18.88;58.79;101333.31;5049412;28;45164;-82
2022/05/10 06:29:49;;;;;;;;;22.25;22.25;;;;;18.87;57.27;101326.22;5049134;28;45103;-82
2022/05/10 06:32:23;;;;;;;;;29.75;28.75;;;;;19.04;57.45;101340.56;5039518;28;45174;-81
2022/05/10 06:34:50;;;;;;;;;29.50;26.50;;;;;19.09;57.31;101332.63;5044330;28;45489;-82
2022/05/10 06:40:13;;;;;;;;;25.00;24.25;;;;;19.56;57.81;101378.34;5048957;28;44965;-84
2022/05/10 06:42:39;;;;;;;;;32.25;30.75;;;;;19.33;57.56;101316.84;5064263;28;45041;-84
2022/05/10 06:45:10;;;;;;;;;26.75;25.25;;;;;19.75;57.42;101378.50;5046411;28;46098;-83
2022/05/10 06:47:37;;;;;;;;;26.75;26.50;;;;;19.53;56.35;101325.00;5045515;28;45802;-83
2022/05/10 06:50:04;;;;;;;;;29.75;27.25;;;;;19.55;56.45;101314.31;5048616;28;45217;-83
2022/05/10 06:52:33;;;;;;;;;27.25;26.00;;;;;19.67;56.44;101317.13;5046638;28;45174;-80
2022/05/10 06:54:58;;;;;;;;;24.75;24.25;;;;;20.00;56.93;101364.47;5045275;28;47547;-83
2022/05/10 06:57:23;;;;;;;;;26.00;25.00;;;;;19.82;56.21;101308.31;5049225;28;45321;-83
2022/05/10 06:59:49;;;;;;;;;27.50;25.50;;;;;20.02;56.61;101329.78;5047876;28;45110;-82
2022/05/10 07:02:14;;;;;;;;;27.50;26.75;;;;;20.10;55.76;101331.59;5026638;28;45164;-83
2022/05/10 07:04:40;;;;;;;;;24.25;24.25;;;;;20.28;55.45;101340.56;5028252;28;45069;-82
2022/05/10 07:07:05;;;;;;;;;24.25;22.50;;;;;20.16;55.49;101305.81;5028339;28;45094;-81
2022/05/10 07:09:30;;;;;;;;;23.25;23.00;;;;;20.26;55.92;101318.31;5026347;28;45203;-81
2022/05/10 07:11:56;;;;;;;;;22.50;22.25;;;;;20.52;55.03;101337.13;5051208;28;45296;-80
2022/05/10 07:14:21;;;;;;;;;25.00;24.50;;;;;20.66;54.34;101345.19;5069047;28;45829;-83
2022/05/10 07:16:47;;;;;;;;;25.75;24.00;;;;;20.67;54.70;101341.63;5067617;28;45114;-82
2022/05/10 07:19:12;;;;;;;;;22.75;22.50;;;;;20.68;53.80;101338.06;5068091;28;45144;-83
2022/05/10 07:21:40;;;;;;;;;20.75;20.75;;;;;20.66;54.89;101326.50;5068683;28;45161;-83
2022/05/10 07:24:05;;;;;;;;;21.50;21.50;;;;;20.64;54.97;101314.91;5027711;28;45980;-83
2022/05/10 07:26:31;;;;;;;;;22.25;22.25;;;;;20.73;55.60;101314.91;5028328;28;45198;-82
2022/05/10 07:28:56;;;;;;;;;23.00;23.00;;;;;20.72;54.20;101294.44;5026573;28;45189;-82
2022/05/10 07:31:22;;;;;;;;;21.00;21.00;;;;;20.94;54.39;101325.66;5027897;28;45079;-81
2022/05/10 07:33:47;;;;;;;;;18.50;18.25;;;;;20.97;53.79;101314.06;5027757;28;45353;-84
2022/05/10 07:36:25;;;;;;;;;21.00;19.25;;;;;21.05;53.95;101315.88;5028367;28;45257;-83
2022/05/10 07:38:51;;;;;;;;;21.25;18.75;;;;;21.12;52.74;101309.63;5027888;28;45089;-83
2022/05/10 07:41:21;;;;;;;;;21.00;19.50;;;;;21.12;52.23;101314.97;5028489;28;45022;-82
2022/05/10 07:43:47;;;;;;;;;20.00;18.25;;;;;21.09;51.78;101314.97;5028394;28;45423;-85
2022/05/10 07:46:13;;;;;;;;;19.25;19.25;;;;;20.93;51.39;101290.91;5027495;28;45428;-83
2022/05/10 07:48:38;;;;;;;;;17.50;17.50;;;;;20.90;51.45;101301.59;5027627;28;45263;-84
2022/05/10 07:51:04;;;;;;;;;20.25;19.25;;;;;21.12;51.78;101357.72;5028383;28;45053;-83
2022/05/10 07:53:31;;;;;;;;;14.75;14.75;;;;;21.02;52.07;101352.38;5028041;28;45493;-83
2022/05/10 07:55:57;;;;;;;;;18.25;17.75;;;;;20.98;52.51;101354.16;5027888;28;45221;-83
2022/05/10 07:58:23;;;;;;;;;18.50;16.75;;;;;20.75;52.05;101316.72;5026763;28;44987;-83
2022/05/10 08:00:48;;;;;;;;;16.25;16.25;;;;;20.93;52.84;101349.69;5027446;28;45263;-83
2022/05/10 08:03:19;;;;;;;;;17.50;17.50;;;;;20.92;52.67;101343.47;5025584;28;46897;-85
2022/05/10 08:05:45;;;;;;;;;14.00;13.75;;;;;20.66;52.73;101305.13;5027832;28;45139;-84
2022/05/10 08:08:12;;;;;;;;;17.75;16.50;;;;;20.80;52.43;101332.75;5028061;28;45064;-84
2022/05/10 08:10:42;;;;;;;;;19.75;18.75;;;;;20.85;52.84;101347.03;5030108;28;45150;-83
2022/05/10 08:13:11;;;;;;;;;20.25;17.50;;;;;20.64;53.09;101313.16;5047457;28;45834;-83
2022/05/10 08:15:38;;;;;;;;;17.75;17.75;;;;;20.86;52.83;101349.69;5047936;28;45262;-82
2022/05/10 08:18:03;;;;;;;;;14.00;14.00;;;;;20.68;52.99;101314.91;5055706;28;45095;-83
2022/05/10 08:20:28;;;;;;;;;17.50;15.75;;;;;20.73;52.09;101310.47;5052612;28;45160;-84
2022/05/10 08:22:54;;;;;;;;;18.00;18.00;;;;;20.73;52.25;101306.91;5057511;28;45152;-85
2022/05/10 08:25:19;;;;;;;;;19.25;18.75;;;;;21.01;51.94;101338.13;5053889;28;45078;-83
2022/05/10 08:27:44;;;;;;;;;17.75;17.25;;;;;21.05;51.96;101339.91;5042126;28;45003;-84
2022/05/10 08:30:10;;;;;;;;;19.25;17.50;;;;;21.03;51.69;101311.41;5027779;28;45265;-80
2022/05/10 08:32:35;;;;;;;;;16.75;16.75;;;;;21.12;51.26;101306.06;5029404;28;45450;-81
2022/05/10 08:35:01;;;;;;;;;18.75;18.25;;;;;21.23;50.69;101317.66;5030986;28;45180;-84
2022/05/10 08:37:26;;;;;;;;;18.75;18.25;;;;;21.42;50.74;101353.31;5039898;28;44969;-85
2022/05/10 08:39:51;;;;;;;;;16.25;16.00;;;;;21.29;50.69;101322.13;5058555;28;45370;-82
2022/05/10 08:42:30;;;;;;;;;19.25;18.25;;;;;21.36;50.74;101324.81;5058328;28;46472;-83
2022/05/10 08:45:00;;;;;;;;;19.50;18.50;;;;;21.52;50.72;101352.44;5051118;28;45171;-83
2022/05/10 08:47:28;;;;;;;;;16.50;15.75;;;;;21.37;50.75;101315.00;5051175;28;45177;-86
2022/05/10 08:50:01;;;;;;;;;19.25;18.50;;;;;21.49;50.90;101323.03;5053425;28;45047;-85
2022/05/10 08:52:40;;;;;;;;;18.00;16.25;;;;;21.36;50.72;101289.16;5054653;28;45415;-86
2022/05/10 08:55:08;;;;;;;;;17.75;17.25;;;;;21.47;51.24;101291.81;5069033;28;45163;-86
2022/05/10 08:57:48;;;;;;;;;16.25;15.75;;;;;21.82;50.85;101332.78;5068339;28;45075;-82
2022/05/10 09:00:16;;;;;;;;;14.75;14.25;;;;;21.92;51.05;101330.06;5070421;28;45442;-83
2022/05/10 09:03:06;;;;;;;;;17.75;17.25;;;;;21.91;50.58;101329.19;5028409;28;47478;-82
2022/05/10 09:05:41;;;;;;;;;19.50;17.25;;;;;21.84;49.97;101293.53;5030155;28;45354;-82
2022/05/10 09:08:25;;;;;;;;;17.50;16.50;;;;;22.15;49.70;101341.63;5030962;28;44914;-83
2022/05/10 09:10:53;;;;;;;;;16.50;14.25;;;;;22.20;49.76;101322.88;5032712;28;44989;-85
2022/05/10 09:13:21;;;;;;;;;17.50;16.75;;;;;22.06;49.11;101288.97;5042169;28;45463;-82
2022/05/10 09:16:08;;;;;;;;;14.50;13.75;;;;;22.39;49.01;101327.25;5030906;28;45663;-82
2022/05/10 09:18:45;;;;;;;;;17.75;15.75;;;;;22.43;49.03;101304.91;5028316;28;45370;-82
2022/05/10 09:21:23;;;;;;;;;14.25;14.00;;;;;22.32;48.31;101272.84;5030148;28;45195;-82
2022/05/10 09:24:19;;;;;;;;;13.50;13.50;;;;;22.76;48.03;101333.31;5035235;28;45562;-83
2022/05/10 09:26:47;;;;;;;;;16.00;16.00;;;;;22.60;48.38;101289.63;5045072;28;45174;-82
2022/05/10 09:29:29;;;;;;;;;14.00;14.00;;;;;23.00;47.87;101334.94;5030605;28;44811;-82
2022/05/10 09:34:47;;;;;;;;;18.25;17.25;;;;;23.21;46.77;101282.97;5047805;28;45266;-83
2022/05/10 09:37:32;;;;;;;;;16.75;16.25;;;;;23.64;46.51;101301.34;5052841;28;45294;-82
2022/05/10 09:39:57;;;;;;;;;17.50;16.25;;;;;23.97;46.28;101313.53;5057061;28;45078;-82
2022/05/10 09:42:31;;;;;;;;;15.33;14.33;;;;;24.11;46.19;101294.56;5055184;28;45858;-83
2022/05/10 09:45:00;;;;;;;;;17.00;15.75;;;;;24.22;45.97;101275.63;5052606;28;45266;-83
2022/05/10 09:47:26;;;;;;;;;18.00;16.50;;;;;24.27;45.06;101252.25;5051555;28;45243;-83
2022/05/10 09:49:51;;;;;;;;;15.00;14.50;;;;;24.52;43.93;101283.28;5060700;28;45269;-84
2022/05/10 09:52:22;;;;;;;;;16.25;16.25;;;;;24.43;43.45;101269.97;5055274;28;45179;-83
2022/05/10 09:54:52;;;;;;;;;14.00;14.00;;;;;24.54;43.82;101286.84;5049458;28;45413;-83
2022/05/10 09:57:27;;;;;;;;;11.50;11.50;;;;;24.51;42.71;101281.50;5049899;28;45153;-83
2022/05/10 09:59:53;;;;;;;;;14.75;14.25;;;;;24.57;43.01;101277.84;5047984;28;45355;-83
2022/05/10 10:02:31;;;;;;;;;11.75;11.50;;;;;24.78;42.71;101303.50;5049634;28;45096;-82
2022/05/10 10:04:57;;;;;;;;;15.25;15.25;;;;;24.65;42.29;101282.19;5049027;28;45755;-83
2022/05/10 10:07:28;;;;;;;;;18.00;17.50;;;;;24.45;42.44;101252.94;5055224;28;45598;-83
2022/05/10 10:10:10;;;;;;;;;20.75;20.75;;;;;24.48;42.71;101262.72;5065666;28;45188;-83
2022/05/10 10:12:44;;;;;;;;;15.75;15.00;;;;;24.77;42.82;101293.69;5048506;28;45310;-83
2022/05/10 10:15:25;;;;;;;;;17.50;16.00;;;;;24.91;42.66;101283.59;5049341;28;45415;-83
2022/05/10 10:18:00;;;;;;;;;18.25;18.00;;;;;24.94;42.32;101284.44;5067543;28;45529;-83
2022/05/10 10:20:41;;;;;;;;;15.75;15.00;;;;;24.68;42.12;101240.97;5055795;28;45384;-81
2022/05/10 10:23:24;;;;;;;;;14.25;14.25;;;;;24.66;42.13;101230.22;5064965;28;45111;-83
2022/05/10 10:25:55;;;;;;;;;14.50;14.00;;;;;24.84;41.63;101247.84;5052111;28;46947;-82
2022/05/10 10:28:27;;;;;;;;;14.50;14.50;;;;;24.88;41.44;101243.31;5047306;28;45464;-84
2022/05/10 10:30:55;;;;;;;;;13.50;13.00;;;;;25.31;42.08;101286.53;5049122;28;45102;-83
2022/05/10 10:34:05;;;;;;;;;13.00;12.75;;;;;25.56;41.20;101286.09;5049445;28;45108;-84
2022/05/10 10:36:46;;;;;;;;;12.50;12.25;;;;;25.69;39.91;101279.56;5029728;28;47446;-83
2022/05/10 10:39:23;;;;;;;;;12.50;12.50;;;;;25.69;40.05;101253.53;5057614;28;45387;-84
2022/05/10 10:41:59;;;;;;;;;14.00;13.50;;;;;26.01;39.82;101278.06;5054693;28;45222;-84
2022/05/10 10:44:28;;;;;;;;;16.25;15.50;;;;;26.15;39.59;101267.88;5056038;28;45530;-84
2022/05/10 10:47:15;;;;;;;;;12.00;12.00;;;;;26.40;39.10;101293.41;5061730;28;45475;-84
2022/05/10 10:49:49;;;;;;;;;14.75;14.75;;;;;26.42;39.56;101291.56;5056694;28;45183;-84
2022/05/10 10:52:17;;;;;;;;;14.00;13.50;;;;;26.17;39.36;101256.16;5051102;28;45158;-84
2022/05/10 10:54:43;;;;;;;;;12.50;11.75;;;;;25.99;38.42;101256.53;5044120;28;45243;-80
2022/05/10 10:57:44;;;;;;;;;14.50;13.50;;;;;25.77;38.32;101241.75;5042793;28;46139;-80
2022/05/10 11:00:17;;;;;;;;;13.25;12.25;;;;;25.53;38.25;101227.84;5046541;28;45244;-85
2022/05/10 11:03:05;;;;;;;;;13.00;12.00;;;;;25.79;38.33;101289.28;5048064;28;45106;-83
2022/05/10 11:05:52;;;;;;;;;13.00;13.00;;;;;25.69;38.58;101290.34;5060139;28;45441;-84
2022/05/10 11:08:36;;;;;;;;;12.75;12.75;;;;;25.71;38.57;101285.78;5068042;28;47360;-85
2022/05/10 11:11:29;;;;;;;;;14.25;14.25;;;;;25.44;38.74;101215.44;5039428;28;45187;-83
2022/05/10 11:14:13;;;;;;;;;14.25;13.25;;;;;25.89;38.43;101276.50;5037463;28;45352;-85
2022/05/10 11:17:11;;;;;;;;;14.25;13.00;;;;;25.78;37.76;101248.91;5028557;28;45245;-85
2022/05/10 11:19:48;;;;;;;;;12.25;12.00;;;;;25.92;38.25;101266.56;5036506;28;45458;-83
2022/05/10 11:22:16;;;;;;;;;13.25;13.25;;;;;25.96;37.26;101254.81;5034999;28;45747;-83
2022/05/10 11:25:09;;;;;;;;;14.25;13.25;;;;;25.99;37.40;101241.25;5028364;28;45145;-82
2022/05/10 11:27:38;;;;;;;;;14.25;13.25;;;;;26.04;37.12;101248.38;5026835;28;45299;-85
2022/05/10 11:30:19;;;;;;;;;15.50;14.25;;;;;25.87;38.25;101216.41;5030409;28;45536;-85
2022/05/10 11:32:47;;;;;;;;;15.25;14.50;;;;;26.10;36.99;101246.41;5045214;28;45635;-82
2022/05/10 11:35:17;;;;;;;;;12.00;12.00;;;;;25.97;37.19;101200.03;5041240;28;45199;-84
2022/05/10 11:37:58;;;;;;;;;11.75;11.25;;;;;26.39;37.37;101242.19;5027232;28;45009;-86
2022/05/10 11:40:31;;;;;;;;;11.00;10.75;;;;;26.58;37.10;101242.69;5028183;28;45661;-81
2022/05/10 11:42:57;;;;;;;;;12.00;12.00;;;;;26.72;36.42;101238.75;5038391;28;45557;-82